Terminal Aerodrome Forecast
Issued by NWS Sioux Falls, SD

Home | Current Version | Previous Version | Text Only | Print | Product List | Glossary On
Versions: 1 2 3 4 5 6 7 8 9 10 11 12 13 14 15 16 17
000
FTUS43 KFSD 191127
TAFHON
TAF
KHON 191127Z 1912/2012 17007KT P6SM BKN200
     FM191500 24008KT P6SM SKC
     FM191900 32013G19KT P6SM SKC
     FM192300 32006KT P6SM SKC=

USA.gov is the U.S. government's official web portal to all federal, state and local government web resources and services.